Time;durP1;ratioP1;P1;durP2;ratioP2;P2;SDS_P1;SDS_P2;PMS_P1;PMS_P2;Temp;Humidity;BMP_temperature;BMP_pressure;BME280_temperature;BME280_humidity;BME280_pressure;Samples;Min_cycle;Max_cycle;Signal;HPM_P1;HPM_P2
2023/12/09 00:01:51;;;;;;;10.60;2.45;;;4.30;99.90;;;;;;5135728;27;20050;-68
2023/12/09 00:04:17;;;;;;;10.88;3.95;;;;;;;;;;5135022;27;20103;-69
2023/12/09 00:06:50;;;;;;;3.38;2.22;;;10.80;99.90;;;;;;5148757;27;20059;-68
2023/12/09 00:09:19;;;;;;;2.00;1.85;;;10.40;99.90;;;;;;5135543;27;20558;-68
2023/12/09 00:11:45;;;;;;;2.80;1.95;;;4.50;99.90;;;;;;5138805;27;20039;-68
2023/12/09 00:14:11;;;;;;;4.80;2.10;;;5.80;99.90;;;;;;5144824;27;20043;-68
2023/12/09 00:16:36;;;;;;;4.93;3.70;;;7.10;99.90;;;;;;5152051;27;20114;-68
2023/12/09 00:19:02;;;;;;;24.38;2.90;;;5.90;99.90;;;;;;5144903;27;20379;-68
2023/12/09 00:21:28;;;;;;;1.63;1.33;;;8.20;99.90;;;;;;5135273;27;20047;-69
2023/12/09 00:23:54;;;;;;;4.22;2.30;;;4.80;99.90;;;;;;5135236;27;20043;-68
2023/12/09 00:26:19;;;;;;;2.40;2.20;;;6.80;99.90;;;;;;5148237;27;20043;-68
2023/12/09 00:28:45;;;;;;;1.30;1.10;;;10.20;99.90;;;;;;5135233;27;20035;-68
2023/12/09 00:31:11;;;;;;;13.00;2.85;;;4.30;99.90;;;;;;5134641;27;20122;-68
2023/12/09 00:33:37;;;;;;;5.85;3.75;;;7.90;99.90;;;;;;5144829;27;20035;-68
2023/12/09 00:36:02;;;;;;;4.28;2.17;;;11.00;99.90;;;;;;5135191;27;20648;-68
2023/12/09 00:38:28;;;;;;;7.53;3.70;;;5.50;99.90;;;;;;5134979;27;20047;-69
2023/12/09 00:40:54;;;;;;;3.15;2.88;;;5.10;99.90;;;;;;5134747;27;20150;-68
2023/12/09 00:43:20;;;;;;;7.15;2.47;;;5.90;99.90;;;;;;5145815;27;20039;-69
2023/12/09 00:45:45;;;;;;;5.03;1.55;;;9.60;99.90;;;;;;5149915;27;20035;-68
2023/12/09 00:48:11;;;;;;;1.35;1.30;;;11.40;99.90;;;;;;5134911;27;20075;-68
2023/12/09 00:50:37;;;;;;;3.03;2.55;;;4.10;99.90;;;;;;5134520;27;20059;-68
2023/12/09 00:53:02;;;;;;;3.42;2.45;;;4.90;99.90;;;;;;5134754;27;20075;-68
2023/12/09 00:55:28;;;;;;;2.72;1.80;;;;;;;;;;5134068;27;20043;-67
2023/12/09 00:57:54;;;;;;;10.60;3.47;;;4.80;99.90;;;;;;5134636;27;20062;-67
2023/12/09 01:00:20;;;;;;;33.03;4.57;;;11.40;99.90;;;;;;5134190;27;20043;-68
2023/12/09 01:02:45;;;;;;;0.98;0.98;;;8.60;99.90;;;;;;5134340;27;20063;-68
2023/12/09 01:05:11;;;;;;;1.75;1.50;;;4.70;99.90;;;;;;5133963;27;20505;-68
2023/12/09 01:07:37;;;;;;;1.83;1.67;;;11.10;99.90;;;;;;5134257;27;20108;-69
2023/12/09 01:10:03;;;;;;;2.42;2.13;;;6.20;99.90;;;;;;5115359;27;20092;-68
2023/12/09 01:12:30;;;;;;;3.20;2.88;;;10.30;99.90;;;;;;5134215;27;20043;-68
2023/12/09 01:14:56;;;;;;;4.03;1.52;;;11.70;99.90;;;;;;5134226;27;20110;-67
2023/12/09 01:17:21;;;;;;;2.30;1.65;;;6.00;99.90;;;;;;5144668;27;20538;-68
2023/12/09 01:19:47;;;;;;;3.30;1.60;;;11.20;99.90;;;;;;5154687;27;20103;-68
2023/12/09 01:22:13;;;;;;;2.35;2.17;;;8.10;99.90;;;;;;5144330;27;20049;-68
2023/12/09 01:24:38;;;;;;;7.00;4.15;;;11.80;99.90;;;;;;5133580;27;20086;-69
2023/12/09 01:27:04;;;;;;;17.73;2.17;;;11.20;99.90;;;;;;5144295;27;20050;-68
2023/12/09 01:29:30;;;;;;;5.30;4.20;;;10.80;99.90;;;;;;5150244;27;20050;-68
2023/12/09 01:31:55;;;;;;;5.10;2.53;;;11.60;99.90;;;;;;5144267;27;20489;-67
2023/12/09 01:34:21;;;;;;;2.13;1.95;;;11.60;99.90;;;;;;5151035;27;20039;-67
2023/12/09 01:36:47;;;;;;;1.98;1.58;;;5.60;99.90;;;;;;5134199;27;20486;-67
2023/12/09 01:39:13;;;;;;;2.25;1.50;;;9.60;99.90;;;;;;5133712;27;20527;-68
2023/12/09 01:41:38;;;;;;;5.78;3.28;;;11.50;99.90;;;;;;5115761;27;20126;-68
2023/12/09 01:44:04;;;;;;;6.20;2.75;;;4.80;99.90;;;;;;5133239;27;20043;-69
2023/12/09 01:46:32;;;;;;;1.63;1.45;;;11.10;99.90;;;;;;5133754;27;20082;-69
2023/12/09 01:48:58;;;;;;;3.65;1.42;;;11.30;99.90;;;;;;5133601;27;20051;-68
2023/12/09 01:51:24;;;;;;;6.50;1.83;;;8.70;99.90;;;;;;5133516;27;20062;-68
2023/12/09 01:53:50;;;;;;;1.75;1.63;;;11.90;99.90;;;;;;5133107;27;20096;-69
2023/12/09 01:56:20;;;;;;;1.70;1.60;;;7.50;99.90;;;;;;5125565;27;20473;-69
2023/12/09 01:58:45;;;;;;;1.70;1.50;;;10.90;99.90;;;;;;5135388;27;20051;-69
2023/12/09 02:01:12;;;;;;;3.63;1.73;;;9.60;99.90;;;;;;5133187;27;20126;-69
2023/12/09 02:03:39;;;;;;;6.47;2.08;;;4.00;99.90;;;;;;5133291;27;20039;-68
2023/12/09 02:06:05;;;;;;;3.10;1.17;;;11.10;99.90;;;;;;5133594;27;20047;-68
2023/12/09 02:08:31;;;;;;;2.10;1.40;;;5.00;99.90;;;;;;5133114;27;20398;-68
2023/12/09 02:11:15;;;;;;;;;;;10.70;99.90;;;;;;5133947;27;20257;-69
2023/12/09 02:13:54;;;;;;;9.30;2.17;;;6.30;99.90;;;;;;5115018;27;19920;-68
2023/12/09 02:16:38;;;;;;;8.30;2.72;;;10.90;99.90;;;;;;5135319;27;20055;-68
2023/12/09 02:19:06;;;;;;;7.13;3.17;;;10.30;99.90;;;;;;5153205;27;20114;-68
2023/12/09 02:22:12;;;;;;;1.75;1.65;;;5.20;99.90;;;;;;5151820;27;20042;-68
2023/12/09 02:24:38;;;;;;;2.10;1.92;;;4.80;99.90;;;;;;5138726;27;20056;-70
2023/12/09 02:27:19;;;;;;;1.60;1.50;;;11.00;99.90;;;;;;5142964;27;20406;-70
2023/12/09 02:30:19;;;;;;;2.15;1.90;;;10.40;99.90;;;;;;5132822;27;20047;-68
2023/12/09 02:32:45;;;;;;;1.38;1.27;;;4.30;99.90;;;;;;5133033;27;20093;-68
2023/12/09 02:35:12;;;;;;;1.83;1.15;;;11.40;99.90;;;;;;5132674;27;20047;-68
2023/12/09 02:37:38;;;;;;;1.58;1.20;;;4.40;99.90;;;;;;5136139;27;20046;-67
2023/12/09 02:40:09;;;;;;;;;;;8.20;99.90;;;;;;5142857;27;20047;-67
2023/12/09 02:42:37;;;;;;;2.10;1.30;;;11.40;99.90;;;;;;5132733;27;19930;-67
2023/12/09 02:45:05;;;;;;;3.53;2.33;;;10.70;99.90;;;;;;5132789;27;20054;-68
2023/12/09 02:47:30;;;;;;;8.77;3.00;;;10.80;99.90;;;;;;5132682;27;20071;-67
2023/12/09 02:49:56;;;;;;;5.28;3.38;;;10.30;99.90;;;;;;5132767;27;20089;-69
2023/12/09 02:52:22;;;;;;;2.75;1.55;;;11.40;99.90;;;;;;5146017;27;20042;-68
2023/12/09 02:54:47;;;;;;;11.30;1.65;;;10.90;99.90;;;;;;5132625;27;20046;-68
2023/12/09 02:57:13;;;;;;;2.92;1.92;;;7.10;99.90;;;;;;5132200;27;20040;-68
2023/12/09 02:59:39;;;;;;;2.80;1.50;;;9.70;99.90;;;;;;5114216;27;20039;-68
2023/12/09 03:02:05;;;;;;;2.22;1.73;;;11.00;99.90;;;;;;5131700;27;20506;-68
2023/12/09 03:04:32;;;;;;;0.95;0.88;;;11.10;99.90;;;;;;5143435;27;20058;-68
2023/12/09 03:06:58;;;;;;;7.95;2.70;;;10.60;99.90;;;;;;5115542;28;20047;-68
2023/12/09 03:09:23;;;;;;;2.33;1.25;;;11.50;99.90;;;;;;5132079;27;20043;-67
2023/12/09 03:11:49;;;;;;;3.15;2.03;;;5.60;99.90;;;;;;5132187;27;20039;-68
2023/12/09 03:14:14;;;;;;;2.05;1.63;;;6.60;99.90;;;;;;5131954;27;20050;-67
2023/12/09 03:16:40;;;;;;;7.03;4.65;;;5.50;99.90;;;;;;5132058;27;20043;-68
2023/12/09 03:19:06;;;;;;;10.70;1.80;;;6.00;99.90;;;;;;5113567;28;20119;-67
2023/12/09 03:21:31;;;;;;;3.33;1.73;;;7.10;99.90;;;;;;5118221;27;20038;-68
2023/12/09 03:23:57;;;;;;;0.82;0.82;;;10.10;99.90;;;;;;5140294;27;20051;-67
2023/12/09 03:26:25;;;;;;;2.03;1.38;;;4.40;99.90;;;;;;5131738;27;20065;-68
2023/12/09 03:28:51;;;;;;;2.33;1.83;;;10.50;99.90;;;;;;5132097;27;20057;-68
2023/12/09 03:31:17;;;;;;;1.27;1.17;;;10.30;99.90;;;;;;5132420;27;20357;-68
2023/12/09 03:33:43;;;;;;;;;;;9.30;99.90;;;;;;5136810;27;20513;-67
2023/12/09 03:36:13;;;;;;;2.42;2.08;;;7.60;99.90;;;;;;5136150;27;19971;-70
2023/12/09 03:38:39;;;;;;;3.40;1.58;;;6.10;99.90;;;;;;5136364;27;20131;-67
2023/12/09 03:41:06;;;;;;;1.42;1.13;;;5.50;99.90;;;;;;5136015;27;20047;-67
2023/12/09 03:43:32;;;;;;;31.88;3.22;;;4.90;99.90;;;;;;5135989;27;20478;-67
2023/12/09 03:46:00;;;;;;;;;;;9.90;99.90;;;;;;5136017;27;20043;-67
2023/12/09 03:48:27;;;;;;;2.97;2.67;;;5.20;99.90;;;;;;5136214;27;20386;-67
2023/12/09 03:50:53;;;;;;;0.98;0.98;;;10.70;99.90;;;;;;5141883;27;20066;-67
2023/12/09 03:53:18;;;;;;;6.53;1.60;;;8.60;99.90;;;;;;5143421;27;20075;-67
2023/12/09 03:55:44;;;;;;;0.57;0.57;;;6.80;99.90;;;;;;5149379;27;20084;-67
2023/12/09 03:58:11;;;;;;;2.75;2.08;;;10.70;99.90;;;;;;5135862;27;20083;-67
2023/12/09 04:00:36;;;;;;;;;;;4.80;99.90;;;;;;5155822;27;20042;-67
2023/12/09 04:03:03;;;;;;;0.60;0.60;;;5.40;99.90;;;;;;5155766;27;20415;-67
2023/12/09 04:05:29;;;;;;;2.40;1.60;;;10.60;99.90;;;;;;5154904;27;20046;-67
2023/12/09 04:07:54;;;;;;;0.75;0.75;;;7.20;99.90;;;;;;5155747;27;20505;-67
2023/12/09 04:10:20;;;;;;;5.05;1.95;;;6.50;99.90;;;;;;5136262;27;20645;-67
2023/12/09 04:12:46;;;;;;;5.88;2.17;;;11.10;99.90;;;;;;5135307;27;20051;-69
2023/12/09 04:15:11;;;;;;;7.97;2.85;;;4.60;99.90;;;;;;5148673;27;20099;-68
2023/12/09 04:17:38;;;;;;;0.82;0.82;;;;;;;;;;5135565;27;20047;-67
2023/12/09 04:20:08;;;;;;;;;;;10.00;99.90;;;;;;5141472;27;20038;-66
2023/12/09 04:22:40;;;;;;;1.42;0.90;;;5.50;99.90;;;;;;5154897;27;20323;-68
2023/12/09 04:25:06;;;;;;;2.08;1.35;;;9.00;99.90;;;;;;5142546;27;20037;-67
2023/12/09 04:27:33;;;;;;;2.13;1.92;;;5.10;99.90;;;;;;5154692;27;20085;-67
2023/12/09 04:30:00;;;;;;;1.52;1.08;;;5.20;99.90;;;;;;5147581;27;20054;-67
2023/12/09 04:32:29;;;;;;;0.88;0.80;;;5.50;99.90;;;;;;5135761;27;20069;-67
2023/12/09 04:34:56;;;;;;;6.13;3.65;;;4.50;99.90;;;;;;5146323;27;20042;-66
2023/12/09 04:37:22;;;;;;;;;;;10.50;99.90;;;;;;5148042;27;20125;-67
2023/12/09 04:39:48;;;;;;;0.90;0.90;;;10.20;99.90;;;;;;5125721;27;20370;-68
2023/12/09 04:42:14;;;;;;;1.00;0.98;;;8.90;99.90;;;;;;5153095;27;20047;-66
2023/12/09 04:44:40;;;;;;;2.35;1.85;;;;;;;;;;5153137;27;20045;-68
2023/12/09 04:47:06;;;;;;;7.18;2.83;;;;;;;;;;5120124;27;20425;-67
2023/12/09 04:49:32;;;;;;;5.05;1.70;;;10.10;99.90;;;;;;5134955;27;20053;-66
2023/12/09 04:51:58;;;;;;;;;;;5.30;99.90;;;;;;5148586;27;20584;-68
2023/12/09 04:54:24;;;;;;;2.00;1.40;;;4.60;99.90;;;;;;5134698;27;19929;-68
2023/12/09 04:56:49;;;;;;;5.22;2.13;;;9.80;99.90;;;;;;5134420;27;20466;-66
2023/12/09 04:59:15;;;;;;;0.65;0.65;;;9.70;99.90;;;;;;5134748;27;20039;-67
2023/12/09 05:01:41;;;;;;;1.63;1.25;;;7.30;99.90;;;;;;5134299;27;20090;-67
2023/12/09 05:04:08;;;;;;;4.88;2.15;;;9.60;99.90;;;;;;5115671;27;20074;-67
2023/12/09 05:06:34;;;;;;;2.28;1.42;;;7.70;99.90;;;;;;5135599;27;20047;-68
2023/12/09 05:09:00;;;;;;;1.35;1.27;;;4.50;99.90;;;;;;5154392;27;20043;-67
2023/12/09 05:11:25;;;;;;;1.20;1.05;;;7.50;99.90;;;;;;5152022;27;20045;-67
2023/12/09 05:13:51;;;;;;;1.63;1.23;;;6.10;99.90;;;;;;5134614;27;20039;-67
2023/12/09 05:16:17;;;;;;;14.10;2.60;;;5.90;99.90;;;;;;5133841;27;20043;-67
2023/12/09 05:18:42;;;;;;;1.30;1.30;;;8.50;99.90;;;;;;5134484;27;20051;-67
2023/12/09 05:21:08;;;;;;;1.38;1.27;;;6.60;99.90;;;;;;5147289;27;20047;-67
2023/12/09 05:23:34;;;;;;;1.25;1.15;;;6.10;99.90;;;;;;5134359;27;20070;-66
2023/12/09 05:26:00;;;;;;;1.73;1.45;;;4.60;99.90;;;;;;5148453;27;20072;-68
2023/12/09 05:28:26;;;;;;;2.05;1.95;;;5.40;99.90;;;;;;5146162;27;20046;-67
2023/12/09 05:30:51;;;;;;;1.92;1.50;;;10.80;99.90;;;;;;5115508;27;20188;-67
2023/12/09 05:33:18;;;;;;;2.75;2.53;;;8.40;99.90;;;;;;5123374;27;20069;-67
2023/12/09 05:35:44;;;;;;;1.25;1.15;;;10.90;99.90;;;;;;5152070;27;20046;-67
2023/12/09 05:38:09;;;;;;;1.77;1.50;;;7.50;99.90;;;;;;5141689;27;20053;-67
2023/12/09 05:40:35;;;;;;;13.90;1.52;;;9.20;99.90;;;;;;5139654;27;20051;-67
2023/12/09 05:43:00;;;;;;;0.60;0.60;;;9.70;99.90;;;;;;5145866;27;20051;-67
2023/12/09 05:45:26;;;;;;;1.30;1.20;;;4.60;99.90;;;;;;5133270;27;20124;-68
2023/12/09 05:47:52;;;;;;;13.52;1.70;;;5.50;99.90;;;;;;5141413;27;20516;-68
2023/12/09 05:50:17;;;;;;;2.60;2.00;;;4.90;99.90;;;;;;5152875;27;20046;-67
2023/12/09 05:52:44;;;;;;;1.48;1.42;;;;;;;;;;5146028;27;20046;-66
2023/12/09 05:55:09;;;;;;;1.45;0.95;;;10.40;99.90;;;;;;5133999;27;20043;-66
2023/12/09 05:57:35;;;;;;;2.67;1.40;;;4.70;99.90;;;;;;5145876;27;20050;-66
2023/12/09 06:00:01;;;;;;;0.93;0.93;;;4.60;99.90;;;;;;5133021;27;20053;-67
2023/12/09 06:02:27;;;;;;;1.75;1.48;;;6.00;99.90;;;;;;5133597;27;20047;-67
2023/12/09 06:04:52;;;;;;;2.88;1.40;;;7.10;99.90;;;;;;5132428;27;20059;-71
2023/12/09 06:07:18;;;;;;;1.35;1.30;;;9.80;99.90;;;;;;5132915;27;20049;-68
2023/12/09 06:09:44;;;;;;;5.93;3.70;;;4.50;99.90;;;;;;5132565;27;20043;-67
2023/12/09 06:12:10;;;;;;;1.50;1.40;;;5.50;99.90;;;;;;5132769;27;20035;-67
2023/12/09 06:14:36;;;;;;;1.55;1.45;;;;;;;;;;5133288;27;20042;-68
2023/12/09 06:17:02;;;;;;;1.73;1.63;;;9.40;99.90;;;;;;5153199;27;20042;-66
2023/12/09 06:19:27;;;;;;;2.85;1.90;;;6.60;99.90;;;;;;5152037;27;20084;-67
2023/12/09 06:21:54;;;;;;;1.85;0.80;;;5.80;99.90;;;;;;5139998;27;20042;-68
2023/12/09 06:24:20;;;;;;;5.90;1.13;;;10.10;99.90;;;;;;5138296;27;20509;-66
2023/12/09 06:26:45;;;;;;;9.32;2.55;;;5.60;99.90;;;;;;5132814;27;20046;-67
2023/12/09 06:29:14;;;;;;;14.98;1.83;;;;;;;;;;5127549;27;20058;-66
2023/12/09 06:31:40;;;;;;;0.90;0.90;;;10.20;99.90;;;;;;5133298;27;20131;-66
2023/12/09 06:34:06;;;;;;;2.85;2.15;;;;;;;;;;5132371;27;20499;-66
2023/12/09 06:36:32;;;;;;;2.45;0.98;;;5.00;99.90;;;;;;5132673;27;20521;-66
2023/12/09 06:38:58;;;;;;;1.73;1.63;;;6.90;99.90;;;;;;5133120;27;20097;-67
2023/12/09 06:41:24;;;;;;;2.08;1.50;;;4.90;99.90;;;;;;5144739;27;20046;-67
2023/12/09 06:43:49;;;;;;;2.90;1.38;;;9.50;99.90;;;;;;5131773;27;20185;-68
2023/12/09 06:46:15;;;;;;;1.80;1.67;;;6.20;99.90;;;;;;5132507;27;20039;-67
2023/12/09 06:48:41;;;;;;;7.80;2.10;;;7.20;99.90;;;;;;5132151;27;20050;-67
2023/12/09 06:51:14;;;;;;;;;;;4.60;99.90;;;;;;5140749;27;20039;-66
2023/12/09 06:53:40;;;;;;;2.88;1.35;;;;;;;;;;5136699;27;20298;-66
2023/12/09 06:56:06;;;;;;;1.88;1.27;;;4.80;99.90;;;;;;5132176;27;20687;-67
2023/12/09 06:58:32;;;;;;;0.77;0.77;;;6.90;99.90;;;;;;5131599;27;20559;-66
2023/12/09 07:00:59;;;;;;;0.47;0.47;;;5.80;99.90;;;;;;5131874;27;20130;-67
2023/12/09 07:03:25;;;;;;;1.02;0.93;;;6.40;99.90;;;;;;5131552;27;20059;-66
2023/12/09 07:05:51;;;;;;;1.85;1.55;;;;;;;;;;5131457;27;20051;-67
2023/12/09 07:08:17;;;;;;;0.77;0.77;;;9.60;99.90;;;;;;5131569;27;20170;-67
2023/12/09 07:10:46;;;;;;;0.75;0.75;;;10.30;99.90;;;;;;5145035;27;20089;-66
2023/12/09 07:13:12;;;;;;;8.15;1.77;;;5.10;99.90;;;;;;5128389;27;20566;-67
2023/12/09 07:15:38;;;;;;;0.68;0.68;;;5.50;99.90;;;;;;5136125;27;20094;-67
2023/12/09 07:18:04;;;;;;;1.00;1.00;;;;;;;;;;5132006;27;20136;-66
2023/12/09 07:20:30;;;;;;;1.73;0.57;;;;;;;;;;5131890;27;20124;-71
2023/12/09 07:22:56;;;;;;;1.45;1.35;;;8.50;99.90;;;;;;5131438;27;20258;-66
2023/12/09 07:25:23;;;;;;;1.33;1.23;;;9.00;99.90;;;;;;5131635;27;20130;-66
2023/12/09 07:27:50;;;;;;;0.63;0.63;;;8.20;99.90;;;;;;5132227;27;20491;-67
2023/12/09 07:30:16;;;;;;;1.95;1.75;;;5.60;99.90;;;;;;5138669;27;20085;-67
2023/12/09 07:32:42;;;;;;;2.67;1.48;;;;;;;;;;5149204;27;20050;-66
2023/12/09 07:35:08;;;;;;;1.80;1.65;;;6.00;99.90;;;;;;5131204;27;20050;-66
2023/12/09 07:37:34;;;;;;;2.25;1.98;;;5.10;99.90;;;;;;5142272;27;20444;-71
2023/12/09 07:40:00;;;;;;;1.08;1.02;;;5.60;99.90;;;;;;5149130;27;20053;-67
2023/12/09 07:42:25;;;;;;;0.82;0.82;;;8.10;99.90;;;;;;5135518;27;20058;-66
2023/12/09 07:44:51;;;;;;;1.55;1.27;;;6.70;99.90;;;;;;5130580;27;20047;-66
2023/12/09 07:47:17;;;;;;;0.80;0.80;;;7.70;99.90;;;;;;5142905;27;20046;-66
2023/12/09 07:49:42;;;;;;;1.25;1.23;;;9.50;99.90;;;;;;5131365;27;20074;-66
2023/12/09 07:52:08;;;;;;;1.05;0.95;;;4.90;99.90;;;;;;5147393;27;20596;-66
2023/12/09 07:54:33;;;;;;;5.53;1.58;;;7.80;99.90;;;;;;5140220;27;20048;-69
2023/12/09 07:56:59;;;;;;;1.48;1.38;;;9.40;99.90;;;;;;5129551;27;20051;-67
2023/12/09 07:59:25;;;;;;;0.80;0.80;;;9.40;99.90;;;;;;5131559;27;20047;-66
2023/12/09 08:01:50;;;;;;;2.90;1.15;;;8.90;99.90;;;;;;5134247;27;20525;-66
2023/12/09 08:04:16;;;;;;;0.95;0.93;;;8.10;99.90;;;;;;5142421;27;20102;-66
2023/12/09 08:06:42;;;;;;;0.90;0.82;;;9.10;99.90;;;;;;5131198;27;20047;-68
2023/12/09 08:09:09;;;;;;;1.05;1.05;;;9.40;99.90;;;;;;5131627;27;20039;-67
2023/12/09 08:11:35;;;;;;;1.15;1.05;;;9.40;99.90;;;;;;5131529;27;20095;-67
2023/12/09 08:14:00;;;;;;;1.15;1.08;;;10.20;99.90;;;;;;5131599;27;20424;-67
2023/12/09 08:16:26;;;;;;;0.60;0.60;;;5.70;99.90;;;;;;5131256;27;20054;-66
2023/12/09 08:18:51;;;;;;;2.13;1.98;;;5.50;99.90;;;;;;5134578;27;20384;-66
2023/12/09 08:21:17;;;;;;;0.60;0.60;;;9.00;99.90;;;;;;5135828;27;20723;-67
2023/12/09 08:23:43;;;;;;;1.70;1.17;;;;;;;;;;5135660;27;20119;-67
2023/12/09 08:26:14;;;;;;;1.30;0.90;;;8.20;99.90;;;;;;5135084;27;20051;-67
2023/12/09 08:28:40;;;;;;;1.75;1.05;;;5.50;99.90;;;;;;5136165;27;20043;-66
2023/12/09 08:31:06;;;;;;;0.93;0.60;;;9.40;99.90;;;;;;5136061;27;20043;-70
2023/12/09 08:33:32;;;;;;;1.77;1.67;;;8.30;99.90;;;;;;5135540;27;20096;-66
2023/12/09 08:35:58;;;;;;;0.90;0.90;;;5.70;99.90;;;;;;5135638;27;20563;-66
2023/12/09 08:38:24;;;;;;;0.93;0.85;;;8.90;99.90;;;;;;5135917;27;20134;-66
2023/12/09 08:40:49;;;;;;;1.05;0.85;;;7.00;99.90;;;;;;5148918;27;20046;-68
2023/12/09 08:43:15;;;;;;;3.53;1.20;;;5.20;99.90;;;;;;5135874;27;20051;-67
2023/12/09 08:45:41;;;;;;;6.68;2.13;;;9.70;99.90;;;;;;5135448;27;20113;-66
2023/12/09 08:48:08;;;;;;;0.80;0.75;;;;;;;;;;5134763;27;20050;-70
2023/12/09 08:50:33;;;;;;;0.20;0.20;;;6.80;99.90;;;;;;5137626;27;20042;-66
2023/12/09 08:52:59;;;;;;;0.80;0.80;;;9.50;99.90;;;;;;5144657;27;20125;-66
2023/12/09 08:55:25;;;;;;;0.82;0.82;;;7.10;99.90;;;;;;5134321;27;20043;-67
2023/12/09 08:57:51;;;;;;;5.85;1.80;;;6.10;99.90;;;;;;5134627;27;20051;-66
2023/12/09 09:00:20;;;;;;;0.65;0.65;;;5.50;99.90;;;;;;5134531;27;20490;-66
2023/12/09 09:02:47;;;;;;;1.35;1.13;;;;;;;;;;5134283;27;20051;-66
2023/12/09 09:05:12;;;;;;;1.10;1.08;;;9.30;99.90;;;;;;5134039;27;20058;-68
2023/12/09 09:07:40;;;;;;;1.27;1.17;;;7.20;99.90;;;;;;5134493;27;20533;-66
2023/12/09 09:10:07;;;;;;;6.85;2.50;;;6.50;99.90;;;;;;5134133;27;20115;-70
2023/12/09 09:12:33;;;;;;;1.67;1.40;;;8.80;99.90;;;;;;5134442;27;20047;-66
2023/12/09 09:14:59;;;;;;;0.65;0.65;;;9.70;99.90;;;;;;5134184;27;20097;-66
2023/12/09 09:17:24;;;;;;;1.33;1.15;;;5.00;99.90;;;;;;5134407;27;20078;-67
2023/12/09 09:19:51;;;;;;;1.60;0.93;;;9.50;99.90;;;;;;5147398;27;20475;-66
2023/12/09 09:22:17;;;;;;;4.68;1.58;;;5.60;99.90;;;;;;5133878;27;20047;-66
2023/12/09 09:24:43;;;;;;;0.88;0.88;;;5.30;99.90;;;;;;5138298;27;20037;-66
2023/12/09 09:27:08;;;;;;;0.90;0.70;;;5.40;99.90;;;;;;5154699;27;20054;-67
2023/12/09 09:29:34;;;;;;;0.73;0.73;;;5.60;99.90;;;;;;5152645;27;20091;-67
2023/12/09 09:32:00;;;;;;;1.55;1.45;;;5.60;99.90;;;;;;5154065;27;20046;-68
2023/12/09 09:34:25;;;;;;;2.25;2.15;;;5.30;99.90;;;;;;5139951;27;20046;-66
2023/12/09 09:36:51;;;;;;;0.57;0.57;;;5.70;99.90;;;;;;5154695;27;20051;-67
2023/12/09 09:39:17;;;;;;;0.75;0.75;;;6.40;99.90;;;;;;5135530;27;20134;-66
2023/12/09 09:41:50;;;;;;;1.02;0.93;;;8.30;99.90;;;;;;5109199;27;20077;-67
2023/12/09 09:44:21;;;;;;;12.70;2.03;;;9.50;99.90;;;;;;5140389;27;20035;-67
2023/12/09 09:46:49;;;;;;;1.40;1.27;;;9.40;99.90;;;;;;5139879;27;20088;-68
2023/12/09 09:49:19;;;;;;;2.03;1.80;;;6.80;99.90;;;;;;5133217;27;20035;-66
2023/12/09 09:51:49;;;;;;;0.25;0.25;;;9.80;99.90;;;;;;5147153;27;20073;-70
2023/12/09 09:54:26;;;;;;;1.17;0.98;;;7.70;99.90;;;;;;5133266;27;20083;-69
2023/12/09 09:56:52;;;;;;;0.32;0.32;;;6.10;99.90;;;;;;5132707;27;20078;-67
2023/12/09 09:59:17;;;;;;;8.13;1.55;;;6.60;99.90;;;;;;5142289;27;20074;-67
2023/12/09 10:01:44;;;;;;;10.48;2.10;;;9.30;99.90;;;;;;5127164;27;20039;-67
2023/12/09 10:04:10;;;;;;;0.68;0.68;;;5.70;99.90;;;;;;5142056;27;20054;-69
2023/12/09 10:06:36;;;;;;;4.63;1.45;;;5.70;99.90;;;;;;5133115;27;20045;-68
2023/12/09 10:09:03;;;;;;;1.70;1.60;;;7.30;99.90;;;;;;5132451;27;20043;-67
2023/12/09 10:11:29;;;;;;;2.20;1.23;;;9.70;99.90;;;;;;5132904;27;20047;-67
2023/12/09 10:13:55;;;;;;;6.78;0.70;;;7.50;99.90;;;;;;5132844;27;20046;-68
2023/12/09 10:16:21;;;;;;;1.20;0.93;;;6.90;99.90;;;;;;5132219;27;20046;-67
2023/12/09 10:18:47;;;;;;;0.80;0.80;;;8.60;99.90;;;;;;5132388;27;20050;-67
2023/12/09 10:21:14;;;;;;;1.67;1.58;;;8.80;99.90;;;;;;5134884;27;20035;-67
2023/12/09 10:23:40;;;;;;;0.32;0.32;;;9.70;99.90;;;;;;5132116;27;20043;-68
2023/12/09 10:26:07;;;;;;;2.13;2.03;;;7.50;99.90;;;;;;5134827;27;20371;-68
2023/12/09 10:28:33;;;;;;;0.93;0.88;;;9.60;99.90;;;;;;5134663;27;20079;-68
2023/12/09 10:31:03;;;;;;;1.02;0.93;;;6.20;99.90;;;;;;5135233;27;20042;-67
2023/12/09 10:33:32;;;;;;;2.25;0.98;;;6.40;99.90;;;;;;5134230;27;20444;-67
2023/12/09 10:36:00;;;;;;;0.77;0.77;;;7.20;99.90;;;;;;5131809;27;20047;-67
2023/12/09 10:38:26;;;;;;;4.25;2.33;;;8.00;99.90;;;;;;5133883;27;20047;-68
2023/12/09 10:40:55;;;;;;;2.50;1.23;;;6.10;99.90;;;;;;5131131;27;20050;-67
2023/12/09 10:43:21;;;;;;;0.55;0.50;;;6.40;99.90;;;;;;5148505;27;20084;-68
2023/12/09 10:45:47;;;;;;;3.20;0.45;;;9.20;99.90;;;;;;5139863;27;20043;-67
2023/12/09 10:48:13;;;;;;;;;;;8.90;99.90;;;;;;5136509;27;20054;-68
2023/12/09 10:50:39;;;;;;;0.30;0.30;;;6.90;99.90;;;;;;5138460;27;19927;-68
2023/12/09 10:53:06;;;;;;;0.73;0.73;;;6.50;99.90;;;;;;5153126;27;20038;-68
2023/12/09 10:55:32;;;;;;;7.97;2.95;;;9.50;99.90;;;;;;5134246;27;20507;-69
2023/12/09 10:57:59;;;;;;;0.40;0.40;;;9.20;99.90;;;;;;5131998;27;20058;-68
2023/12/09 11:00:25;;;;;;;0.30;0.30;;;9.30;99.90;;;;;;5132106;27;20051;-67
2023/12/09 11:02:56;;;;;;;0.20;0.20;;;9.30;99.90;;;;;;5125523;27;20138;-68
2023/12/09 11:05:22;;;;;;;0.20;0.20;;;9.40;99.90;;;;;;5133016;27;20410;-68
2023/12/09 11:07:49;;;;;;;0.40;0.40;;;8.80;99.90;;;;;;5132330;27;20108;-68
2023/12/09 11:10:15;;;;;;;3.05;2.30;;;6.70;99.90;;;;;;5137153;27;20108;-68
2023/12/09 11:12:41;;;;;;;;;;;9.70;99.90;;;;;;5122085;27;20092;-68
2023/12/09 11:15:12;;;;;;;2.50;1.65;;;9.20;99.90;;;;;;5131680;27;19927;-68
2023/12/09 11:17:40;;;;;;;0.85;0.77;;;9.20;99.90;;;;;;5132288;27;20108;-67
2023/12/09 11:20:09;;;;;;;0.30;0.30;;;7.90;99.90;;;;;;5131831;27;20947;-67
2023/12/09 11:22:40;;;;;;;1.25;1.15;;;6.60;99.60;;;;;;5113306;27;20464;-68
2023/12/09 11:25:09;;;;;;;0.35;0.35;;;9.30;99.60;;;;;;5131980;27;20536;-68
2023/12/09 11:27:37;;;;;;;1.52;0.70;;;6.80;92.40;;;;;;5144869;27;20682;-68
2023/12/09 11:30:03;;;;;;;2.17;0.52;;;7.00;98.10;;;;;;5132110;27;20123;-67
2023/12/09 11:32:30;;;;;;;0.57;0.57;;;8.60;94.90;;;;;;5145096;27;20047;-67
2023/12/09 11:34:57;;;;;;;0.20;0.20;;;7.50;97.20;;;;;;5131849;27;20047;-68
2023/12/09 11:37:26;;;;;;;0.60;0.57;;;6.90;96.50;;;;;;5131643;27;20100;-67
2023/12/09 11:39:54;;;;;;;1.58;0.63;;;7.00;95.60;;;;;;5113342;28;20054;-67
2023/12/09 11:42:21;;;;;;;0.38;0.28;;;8.90;95.90;;;;;;5134013;27;20051;-67
2023/12/09 11:44:47;;;;;;;0.65;0.65;;;9.30;96.30;;;;;;5152488;27;20486;-68
2023/12/09 11:47:13;;;;;;;0.20;0.20;;;7.40;96.60;;;;;;5136323;27;20047;-67
2023/12/09 11:49:40;;;;;;;0.40;0.40;;;8.70;95.70;;;;;;5131928;27;20119;-67
2023/12/09 11:52:07;;;;;;;0.60;0.60;;;7.00;94.90;;;;;;5146036;27;20042;-67
2023/12/09 11:54:33;;;;;;;1.10;0.75;;;6.80;93.60;;;;;;5136018;27;20092;-67
2023/12/09 11:56:59;;;;;;;0.30;0.30;;;6.40;90.00;;;;;;5152339;27;20047;-68
2023/12/09 11:59:25;;;;;;;3.00;1.13;;;7.70;91.50;;;;;;5146225;27;20478;-67
2023/12/09 12:01:51;;;;;;;0.47;0.47;;;6.80;89.90;;;;;;5135555;27;20188;-67
2023/12/09 12:04:17;;;;;;;;;;;8.80;87.90;;;;;;5136262;27;20819;-67
2023/12/09 12:06:42;;;;;;;0.20;0.20;;;9.50;80.30;;;;;;5149136;27;19927;-68
2023/12/09 12:09:09;;;;;;;0.20;0.20;;;7.20;81.40;;;;;;5117766;27;20472;-68
2023/12/09 12:11:34;;;;;;;;;;;7.90;86.50;;;;;;5135885;27;20157;-68
2023/12/09 12:14:00;;;;;;;1.85;1.75;;;6.80;85.40;;;;;;5145621;27;20056;-67
2023/12/09 12:16:26;;;;;;;0.30;0.30;;;8.90;85.10;;;;;;5139305;27;20079;-67
2023/12/09 12:18:55;;;;;;;0.50;0.50;;;6.80;74.70;;;;;;5135499;27;20051;-68
2023/12/09 12:21:20;;;;;;;0.80;0.80;;;8.50;82.50;;;;;;5135405;27;20042;-68
2023/12/09 12:23:51;;;;;;;0.30;0.30;;;9.00;69.30;;;;;;5135296;27;20043;-67
2023/12/09 12:26:17;;;;;;;0.38;0.38;;;8.30;80.30;;;;;;5139347;27;20043;-67
2023/12/09 12:28:48;;;;;;;0.20;0.20;;;6.70;75.40;;;;;;5155678;27;20185;-67
2023/12/09 12:31:13;;;;;;;0.30;0.30;;;8.80;70.70;;;;;;5136941;27;20047;-67
2023/12/09 12:33:39;;;;;;;4.32;1.05;;;7.10;73.60;;;;;;5135238;27;20049;-69
2023/12/09 12:36:05;;;;;;;8.18;1.30;;;7.00;75.20;;;;;;5134989;27;20042;-69
2023/12/09 12:38:32;;;;;;;;;;;8.10;75.90;;;;;;5135418;27;20051;-67
2023/12/09 12:40:58;;;;;;;1.08;0.57;;;7.20;73.90;;;;;;5129519;27;20412;-67
2023/12/09 12:43:28;;;;;;;0.73;0.70;;;8.30;60.50;;;;;;5135036;27;20141;-67
2023/12/09 12:45:56;;;;;;;0.22;0.22;;;7.90;71.60;;;;;;5134546;27;20035;-67
2023/12/09 12:48:23;;;;;;;0.20;0.20;;;7.90;69.00;;;;;;5147091;27;20061;-68
2023/12/09 12:50:49;;;;;;;1.90;1.38;;;8.20;57.40;;;;;;5140482;27;20070;-67
2023/12/09 12:53:18;;;;;;;0.30;0.30;;;8.90;57.20;;;;;;5142963;27;20070;-67
2023/12/09 12:55:44;;;;;;;0.63;0.63;;;7.60;57.60;;;;;;5134423;27;20118;-67
2023/12/09 12:58:10;;;;;;;;;;;8.30;59.30;;;;;;5148421;27;20058;-67
2023/12/09 13:00:36;;;;;;;0.30;0.30;;;8.60;55.90;;;;;;5148924;27;20006;-67
2023/12/09 13:03:02;;;;;;;0.75;0.47;;;;;;;;;;5147515;27;20130;-67